Startpagina
METAR-TAF:

METAR-TAF

Vliegvelden :

Uden, Nederland

Vliegbasis Volkel

breedte: 51-39N, lengte: 005-42E, hoogte: 22 m

Actueel weer

Dit bericht is 34 minuten geleden gemaakt, om 09:55 UTC
Wind 5 kt uit het zuidzuidwesten, variërend tussen het zuiden en het westzuidwesten
Temperatuur 16°C
Vochtigheid 72%
Druk 1020 hPa
Zicht 10 km of meer
geen wolken onder 1500 m en geen cumulonimbus

METAR: EHVK 210955Z AUTO 19007KT 180V240 9999 BKN350 16/11 Q1020 BLU 20005KT CAVOK

Tijdstip: 12:29 (10:29 UTC)

Verwachting

Dit bericht is 1 uur en het 51 minuten geleden gemaakt, om 08:38 UTC
Verwachting geldig van 21 om 09 UTC tot 21 om 21 UTC
Wind 8 kt uit het zuiden
Zicht 10 km of meer
geen wolken onder 1500 m en geen cumulonimbus

TAF: EHVK 210838Z 2109/2121 19008KT CAVOK

Waarnemingen en weersverwachtingen van meer dan 4000 vliegvelden (METAR en TAF).

De beschikbare stations zijn de gele en rode punten op de kaart.

Ga met uw muis naar het station om de naam te zien.

Klik dan om waarnemingen en weersverwachtingen te zien.

kaart wijzigen: klik op de groene knoppen met een zwart kruis om in te zoomen, op de groene knop met een streepje om uit te zoomen of op de groene pijlen voor aangrenzende kaarten.


METAR-TAF: